Time;durP1;ratioP1;P1;durP2;ratioP2;P2;SDS_P1;SDS_P2;PMS_P1;PMS_P2;Temp;Humidity;BMP_temperature;BMP_pressure;BME280_temperature;BME280_humidity;BME280_pressure;Samples;Min_cycle;Max_cycle;Signal;HPM_P1;HPM_P2
2023/12/31 00:02:16;;;;;;;;;9.00;5.00;;;;;10.89;100.00;100148.75;5040709;28;50316;-77
2023/12/31 00:04:44;;;;;;;;;4.00;3.00;;;;;10.66;100.00;100114.00;5041367;28;45351;-78
2023/12/31 00:07:29;;;;;;;;;3.33;3.33;;;;;10.59;100.00;100110.88;5041785;28;45355;-77
2023/12/31 00:09:54;;;;;;;;;4.00;3.00;;;;;10.19;100.00;100019.81;5023040;28;45418;-78
2023/12/31 00:12:20;;;;;;;;;5.00;5.00;;;;;10.13;100.00;99990.22;5039137;28;46955;-77
2023/12/31 00:14:45;;;;;;;;;5.67;3.67;;;;;10.86;100.00;100095.19;5041376;28;45447;-77
2023/12/31 00:17:13;;;;;;;;;3.67;2.00;;;;;10.96;100.00;100099.81;5041011;28;45468;-78
2023/12/31 00:19:41;;;;;;;;;6.67;4.00;;;;;10.87;100.00;100097.72;5023382;28;45483;-78
2023/12/31 00:22:14;;;;;;;;;4.00;4.00;;;;;10.95;100.00;100098.13;5031567;28;45481;-79
2023/12/31 00:24:41;;;;;;;;;4.00;2.67;;;;;10.85;100.00;100085.53;5022841;28;46078;-78
2023/12/31 00:27:07;;;;;;;;;8.67;5.00;;;;;10.94;100.00;100083.19;5036675;28;45377;-78
2023/12/31 00:29:40;;;;;;;;;4.67;3.00;;;;;10.70;100.00;100050.25;5019213;28;45589;-78
2023/12/31 00:32:05;;;;;;;;;6.00;4.00;;;;;10.91;100.00;100064.84;5024850;28;45452;-78
2023/12/31 00:34:31;;;;;;;;;5.67;4.00;;;;;10.67;100.00;100026.63;5044216;28;45454;-78
2023/12/31 00:36:56;;;;;;;;;4.00;2.67;;;;;10.80;100.00;100046.13;5044328;28;45816;-79
2023/12/31 00:39:44;;;;;;;;;4.00;4.00;;;;;10.90;100.00;100065.78;5041962;28;45363;-79
2023/12/31 00:42:12;;;;;;;;;3.00;3.00;;;;;10.77;100.00;100067.47;5034072;28;46528;-78
2023/12/31 00:44:38;;;;;;;;;5.00;3.67;;;;;10.84;100.00;100052.06;5018931;28;45502;-78
2023/12/31 00:47:03;;;;;;;;;4.33;4.33;;;;;10.18;100.00;99940.63;5035923;28;45283;-78
2023/12/31 00:49:29;;;;;;;;;4.33;3.00;;;;;10.76;100.00;100038.47;5040988;28;45293;-79
2023/12/31 00:52:08;;;;;;;;;3.33;3.33;;;;;10.89;100.00;100040.28;5040606;28;45314;-78
2023/12/31 00:54:34;;;;;;;;;3.67;2.67;;;;;10.19;100.00;99937.91;5038669;28;45458;-78
2023/12/31 00:56:59;;;;;;;;;5.00;3.67;;;;;10.20;100.00;99899.97;5043671;28;45384;-78
2023/12/31 00:59:25;;;;;;;;;3.67;3.00;;;;;10.73;100.00;99980.47;5050208;28;45429;-77
2023/12/31 01:01:51;;;;;;;;;4.33;3.00;;;;;10.92;100.00;100013.66;5022275;28;45491;-78
2023/12/31 01:04:16;;;;;;;;;2.67;2.33;;;;;10.94;100.00;100006.47;5050497;28;45459;-78
2023/12/31 01:06:42;;;;;;;;;4.00;3.67;;;;;10.97;100.00;100014.22;5042945;28;45447;-78
2023/12/31 01:09:07;;;;;;;;;4.00;4.00;;;;;10.87;100.00;99975.19;5041560;28;45535;-78
2023/12/31 01:11:35;;;;;;;;;5.67;4.00;;;;;11.03;100.00;99981.22;5040094;28;45386;-78
2023/12/31 01:14:00;;;;;;;;;3.00;2.00;;;;;10.98;100.00;99957.72;5040608;28;45372;-78
2023/12/31 01:16:25;;;;;;;;;4.33;4.00;;;;;10.66;100.00;99895.38;5038975;28;45378;-77
2023/12/31 01:18:51;;;;;;;;;4.00;4.00;;;;;10.90;100.00;99930.00;5037048;28;45615;-78
2023/12/31 01:21:18;;;;;;;;;3.00;3.00;;;;;10.88;100.00;99935.41;5040196;28;45444;-77
2023/12/31 01:23:43;;;;;;;;;3.33;3.33;;;;;11.05;100.00;99944.94;5035418;28;45307;-78
2023/12/31 01:26:08;;;;;;;;;5.67;3.00;;;;;10.88;100.00;99924.84;5043349;28;45420;-77
2023/12/31 01:28:34;;;;;;;;;4.00;4.00;;;;;10.86;100.00;99902.91;5013723;28;45571;-77
2023/12/31 01:31:02;;;;;;;;;3.00;3.00;;;;;11.04;100.00;99908.00;5020410;28;46422;-77
2023/12/31 01:33:27;;;;;;;;;5.33;4.00;;;;;10.89;100.00;99889.50;5021732;28;45257;-78
2023/12/31 01:35:52;;;;;;;;;3.00;3.00;;;;;11.07;100.00;99910.44;5040516;28;45515;-78
2023/12/31 01:38:20;;;;;;;;;5.00;3.00;;;;;11.07;100.00;99907.78;5016859;28;45430;-77
2023/12/31 01:40:58;;;;;;;;;6.00;3.67;;;;;11.07;100.00;99891.91;5041950;28;47084;-78
2023/12/31 01:43:23;;;;;;;;;3.67;3.67;;;;;11.01;100.00;99881.72;5038582;28;45397;-78
2023/12/31 01:45:49;;;;;;;;;7.67;4.00;;;;;10.90;100.00;99853.28;5037825;28;45348;-78
2023/12/31 01:48:15;;;;;;;;;6.00;4.67;;;;;11.07;100.00;99868.09;5039987;28;45443;-77
2023/12/31 01:50:41;;;;;;;;;2.00;2.00;;;;;10.97;100.00;99867.84;5052935;28;45456;-78
2023/12/31 01:53:11;;;;;;;;;6.33;4.33;;;;;11.09;100.00;99879.47;5023130;28;45413;-78
2023/12/31 01:55:36;;;;;;;;;5.33;3.00;;;;;10.98;100.00;99849.22;5021043;28;45366;-79
2023/12/31 01:58:02;;;;;;;;;5.00;4.00;;;;;10.99;100.00;99842.16;5039229;28;45310;-78
2023/12/31 02:00:27;;;;;;;;;5.00;4.00;;;;;11.02;100.00;99857.84;5038975;28;46261;-78
2023/12/31 02:02:54;;;;;;;;;4.33;4.33;;;;;10.97;100.00;99831.66;5041963;28;45461;-78
2023/12/31 02:05:20;;;;;;;;;3.67;3.67;;;;;11.09;100.00;99819.44;5021754;28;45408;-79
2023/12/31 02:07:45;;;;;;;;;4.00;4.00;;;;;10.96;100.00;99806.13;5027740;28;45550;-77
2023/12/31 02:10:11;;;;;;;;;4.00;4.00;;;;;11.10;100.00;99828.22;5042060;28;45546;-77
2023/12/31 02:12:41;;;;;;;;;3.00;3.00;;;;;11.10;100.00;99826.41;5038767;28;45384;-77
2023/12/31 02:15:08;;;;;;;;;3.67;3.67;;;;;11.05;100.00;99812.66;5038649;28;45427;-77
2023/12/31 02:17:33;;;;;;;;;4.33;3.33;;;;;11.03;100.00;99806.59;5039072;28;45545;-77
2023/12/31 02:19:59;;;;;;;;;5.00;4.00;;;;;11.08;100.00;99803.66;5037801;28;47685;-77
2023/12/31 02:22:25;;;;;;;;;4.00;3.00;;;;;10.67;100.00;99737.53;5021308;28;45471;-77
2023/12/31 02:24:58;;;;;;;;;3.00;3.00;;;;;10.97;100.00;99776.09;5021247;28;45408;-77
2023/12/31 02:27:23;;;;;;;;;5.00;5.00;;;;;11.02;100.00;99785.53;5020805;28;45658;-77
2023/12/31 02:29:49;;;;;;;;;4.00;4.00;;;;;10.88;100.00;99763.47;5021003;28;47105;-77
2023/12/31 02:32:14;;;;;;;;;3.00;3.00;;;;;10.94;100.00;99763.06;5037473;28;45323;-77
2023/12/31 02:34:44;;;;;;;;;3.00;3.00;;;;;11.01;100.00;99787.34;5039232;28;45316;-76
2023/12/31 02:37:10;;;;;;;;;4.33;4.00;;;;;11.01;100.00;99773.25;5038709;28;45243;-77
2023/12/31 02:39:35;;;;;;;;;2.00;2.00;;;;;10.84;100.00;99756.69;5021894;28;47210;-77
2023/12/31 02:42:00;;;;;;;;;4.00;4.00;;;;;10.94;100.00;99752.50;5038576;28;45441;-77
2023/12/31 02:44:26;;;;;;;;;3.00;3.00;;;;;10.96;100.00;99749.75;5037455;28;45365;-78
2023/12/31 02:46:51;;;;;;;;;7.00;4.67;;;;;10.96;100.00;99742.63;5039570;28;45594;-77
2023/12/31 02:49:17;;;;;;;;;3.67;3.67;;;;;10.88;100.00;99725.59;5038880;28;45983;-77
2023/12/31 02:51:42;;;;;;;;;3.00;3.00;;;;;11.07;100.00;99772.84;5037425;28;45400;-78
2023/12/31 02:54:07;;;;;;;;;4.00;4.00;;;;;11.03;100.00;99758.97;5038960;28;45333;-78
2023/12/31 02:56:41;;;;;;;;;3.00;3.00;;;;;11.10;100.00;99770.00;5027572;28;45429;-78
2023/12/31 02:59:07;;;;;;;;;4.00;4.00;;;;;11.11;100.00;99742.59;5035093;28;47833;-78
2023/12/31 03:01:33;;;;;;;;;3.67;2.67;;;;;11.19;100.00;99762.28;5038760;28;45381;-78
2023/12/31 03:03:58;;;;;;;;;3.00;2.00;;;;;11.05;100.00;99741.22;5038571;28;45373;-78
2023/12/31 03:06:29;;;;;;;;;3.00;3.00;;;;;11.26;100.00;99758.28;5023321;28;45534;-77
2023/12/31 03:08:58;;;;;;;;;1.00;1.00;;;;;11.11;100.00;99739.94;5044575;28;48324;-78
2023/12/31 03:11:24;;;;;;;;;3.00;3.00;;;;;11.25;100.00;99737.25;5009490;28;45394;-77
2023/12/31 03:13:49;;;;;;;;;3.00;2.00;;;;;11.18;100.00;99730.66;5021286;28;45457;-78
2023/12/31 03:16:14;;;;;;;;;3.00;3.00;;;;;11.19;100.00;99706.72;5037381;28;45550;-78
2023/12/31 03:18:40;;;;;;;;;2.00;2.00;;;;;11.34;100.00;99720.72;5037188;28;51390;-79
2023/12/31 03:21:08;;;;;;;;;4.67;3.33;;;;;11.23;100.00;99678.25;5020559;28;45402;-78
2023/12/31 03:23:36;;;;;;;;;2.00;2.00;;;;;11.18;100.00;99661.84;5036938;28;45315;-78
2023/12/31 03:26:06;;;;;;;;;2.00;2.00;;;;;11.10;100.00;99654.41;5038478;28;45700;-78
2023/12/31 03:28:31;;;;;;;;;3.00;3.00;;;;;11.32;100.00;99690.88;5038323;28;45562;-78
2023/12/31 03:30:57;;;;;;;;;3.00;2.33;;;;;11.33;100.00;99672.22;5037005;28;45333;-79
2023/12/31 03:33:22;;;;;;;;;3.00;3.00;;;;;11.21;100.00;99657.19;5037754;28;46332;-78
2023/12/31 03:35:47;;;;;;;;;5.00;3.00;;;;;11.34;100.00;99678.38;5038906;28;45440;-78
2023/12/31 03:38:13;;;;;;;;;5.67;4.00;;;;;10.98;100.00;99613.78;5020562;28;45478;-78
2023/12/31 03:40:54;;;;;;;;;3.00;3.00;;;;;11.33;100.00;99663.44;5037972;28;45414;-79
2023/12/31 03:43:20;;;;;;;;;6.00;3.00;;;;;10.62;100.00;99558.06;5026213;28;45416;-78
2023/12/31 03:45:46;;;;;;;;;2.00;2.00;;;;;10.72;100.00;99548.56;5038345;28;45474;-79
2023/12/31 03:48:12;;;;;;;;;4.00;3.00;;;;;11.39;100.00;99650.63;5038601;28;45337;-78
2023/12/31 03:50:39;;;;;;;;;4.00;3.00;;;;;11.44;100.00;99650.34;5040799;28;45495;-80
2023/12/31 03:53:05;;;;;;;;;4.00;3.00;;;;;11.31;100.00;99623.84;5023042;28;45354;-79
2023/12/31 03:55:30;;;;;;;;;2.00;2.00;;;;;11.47;100.00;99650.13;5038802;28;45274;-79
2023/12/31 03:57:55;;;;;;;;;2.00;2.00;;;;;11.33;100.00;99635.19;5038219;28;52365;-79
2023/12/31 04:00:24;;;;;;;;;1.67;1.67;;;;;11.44;100.00;99648.53;5037811;28;45427;-79
2023/12/31 04:03:01;;;;;;;;;1.67;1.00;;;;;11.43;100.00;99648.63;5037996;28;45333;-79
2023/12/31 04:05:33;;;;;;;;;2.00;2.00;;;;;10.56;100.00;99516.19;5019857;28;45546;-80
2023/12/31 04:08:02;;;;;;;;;0.00;0.00;;;;;10.96;100.00;99581.28;5037564;28;45476;-81
2023/12/31 04:10:33;;;;;;;;;3.00;3.00;;;;;10.66;100.00;99527.84;5037521;28;45393;-80
2023/12/31 04:13:05;;;;;;;;;2.67;2.33;;;;;10.67;100.00;99561.25;5019922;28;45462;-80
2023/12/31 04:15:32;;;;;;;;;2.33;1.00;;;;;10.42;100.00;99529.47;5016331;28;45722;-80
2023/12/31 04:18:16;;;;;;;;;0.67;0.67;;;;;10.59;100.00;99566.22;5011096;28;46756;-79
2023/12/31 04:21:01;;;;;;;;;2.33;2.00;;;;;11.23;100.00;99622.66;5050027;28;45416;-79
2023/12/31 04:23:28;;;;;;;;;1.00;1.00;;;;;11.03;100.00;99592.28;5027831;28;45491;-79
2023/12/31 04:25:53;;;;;;;;;0.67;0.67;;;;;10.38;100.00;99452.19;5025518;28;45729;-79
2023/12/31 04:28:36;;;;;;;;;;;;;;;;;;;;;
2023/12/31 04:31:08;;;;;;;;;1.00;1.00;;;;;11.08;100.00;99594.63;5034248;28;71343;-80
2023/12/31 04:33:39;;;;;;;;;1.33;1.33;;;;;10.94;100.00;99582.34;5022698;28;45259;-79
2023/12/31 04:36:06;;;;;;;;;0.67;0.67;;;;;10.78;100.00;99566.66;5021753;28;45602;-79
2023/12/31 04:38:32;;;;;;;;;0.00;0.00;;;;;10.58;100.00;99546.00;5040731;28;46996;-79
2023/12/31 04:41:04;;;;;;;;;0.00;0.00;;;;;10.96;100.00;99589.19;5040715;28;45563;-79
2023/12/31 04:43:30;;;;;;;;;1.00;1.00;;;;;10.76;100.00;99567.72;5042688;28;45543;-79
2023/12/31 04:45:56;;;;;;;;;0.67;0.00;;;;;10.31;100.00;99513.47;5040252;28;45338;-79
2023/12/31 04:48:21;;;;;;;;;0.67;0.00;;;;;10.53;100.00;99569.28;5040283;28;45393;-79
2023/12/31 04:50:52;;;;;;;;;1.00;0.00;;;;;10.58;100.00;99563.66;5038893;28;45409;-77
2023/12/31 04:53:22;;;;;;;;;0.00;0.00;;;;;10.78;100.00;99643.34;5044395;28;45384;-78
2023/12/31 04:55:47;;;;;;;;;0.00;0.00;;;;;10.17;100.00;99511.78;5029068;28;45349;-78
2023/12/31 04:58:12;;;;;;;;;0.00;0.00;;;;;10.52;100.00;99587.84;5040979;28;45857;-78
2023/12/31 05:00:38;;;;;;;;;0.00;0.00;;;;;10.66;100.00;99615.09;5022706;28;45558;-78
2023/12/31 05:03:03;;;;;;;;;0.00;0.00;;;;;10.72;100.00;99630.53;5040253;28;45290;-78
2023/12/31 05:05:29;;;;;;;;;0.00;0.00;;;;;10.34;100.00;99580.19;5040754;28;45380;-79
2023/12/31 05:07:54;;;;;;;;;0.00;0.00;;;;;10.64;100.00;99624.91;5040753;28;47823;-78
2023/12/31 05:10:20;;;;;;;;;0.67;0.00;;;;;10.54;100.00;99613.22;5026363;28;45645;-79
2023/12/31 05:12:59;;;;;;;;;0.00;0.00;;;;;10.41;100.00;99591.19;5050333;28;45579;-81
2023/12/31 05:15:27;;;;;;;;;0.00;0.00;;;;;10.45;100.00;99622.63;5023235;28;45459;-80
2023/12/31 05:17:59;;;;;;;;;0.00;0.00;;;;;9.87;100.00;99535.72;5035531;28;46336;-80
2023/12/31 05:20:28;;;;;;;;;2.00;0.00;;;;;10.14;100.00;99545.47;5038563;28;45476;-79
2023/12/31 05:22:54;;;;;;;;;1.33;0.67;;;;;10.01;100.00;99526.03;5022055;28;45388;-79
2023/12/31 05:25:23;;;;;;;;;0.00;0.00;;;;;10.22;100.00;99573.06;5021910;28;45363;-80
2023/12/31 05:27:52;;;;;;;;;0.00;0.00;;;;;10.41;100.00;99602.63;5015344;28;47174;-80
2023/12/31 05:30:22;;;;;;;;;0.00;0.00;;;;;10.44;100.00;99614.78;5022035;28;45379;-80
2023/12/31 05:32:58;;;;;;;;;0.00;0.00;;;;;10.24;100.00;99583.56;5039548;28;45480;-80
2023/12/31 05:35:27;;;;;;;;;0.00;0.00;;;;;10.40;100.00;99615.97;5033212;28;45722;-80
2023/12/31 05:37:53;;;;;;;;;0.00;0.00;;;;;9.89;100.00;99522.38;5018158;28;45826;-80
2023/12/31 05:40:19;;;;;;;;;0.00;0.00;;;;;9.72;100.00;99468.03;5017876;28;45420;-79
2023/12/31 05:42:47;;;;;;;;;0.00;0.00;;;;;9.88;100.00;99483.75;5020611;28;45318;-79
2023/12/31 05:45:14;;;;;;;;;0.00;0.00;;;;;9.85;100.00;99494.47;5020515;28;45571;-79
2023/12/31 05:47:39;;;;;;;;;0.00;0.00;;;;;9.53;100.00;99442.91;5019679;28;45580;-78
2023/12/31 05:50:22;;;;;;;;;0.00;0.00;;;;;10.08;100.00;99537.91;5039718;28;45440;-78
2023/12/31 05:52:48;;;;;;;;;0.00;0.00;;;;;9.42;100.00;99423.34;5039353;28;45482;-78
2023/12/31 05:55:23;;;;;;;;;0.00;0.00;;;;;9.73;100.00;99490.84;5039105;28;45713;-78
2023/12/31 05:57:58;;;;;;;;;2.00;0.00;;;;;9.70;100.00;99495.47;5021296;28;45752;-80
2023/12/31 06:00:24;;;;;;;;;1.00;0.00;;;;;10.09;100.00;99536.94;5038453;28;45391;-78
2023/12/31 06:02:50;;;;;;;;;0.33;0.00;;;;;9.97;100.00;99543.03;5039999;28;45441;-78
2023/12/31 06:05:18;;;;;;;;;0.00;0.00;;;;;10.02;100.00;99551.50;5023255;28;45357;-78
2023/12/31 06:07:44;;;;;;;;;1.00;0.00;;;;;9.95;100.00;99569.53;5041326;28;45397;-78
2023/12/31 06:10:09;;;;;;;;;0.00;0.00;;;;;9.86;100.00;99559.56;5038802;28;45272;-78
2023/12/31 06:12:35;;;;;;;;;0.00;0.00;;;;;10.02;100.00;99589.31;5013803;28;45397;-77
2023/12/31 06:15:10;;;;;;;;;0.00;0.00;;;;;9.97;100.00;99596.72;5022014;28;45309;-78
2023/12/31 06:17:37;;;;;;;;;0.00;0.00;;;;;9.34;100.00;99517.13;5038245;28;48182;-78
2023/12/31 06:20:06;;;;;;;;;0.00;0.00;;;;;9.57;100.00;99526.25;5047137;28;45396;-78
2023/12/31 06:22:35;;;;;;;;;1.00;0.00;;;;;9.42;100.00;99502.50;5039345;28;45380;-78
2023/12/31 06:25:01;;;;;;;;;0.00;0.00;;;;;9.54;100.00;99515.88;5038669;28;45314;-78
2023/12/31 06:27:33;;;;;;;;;0.33;0.00;;;;;10.12;100.00;99629.19;5039087;28;45301;-77
2023/12/31 06:29:59;;;;;;;;;0.00;0.00;;;;;9.48;100.00;99540.88;5039163;28;45471;-78
2023/12/31 06:32:24;;;;;;;;;0.00;0.00;;;;;9.37;100.00;99507.25;5038912;28;45288;-77
2023/12/31 06:34:52;;;;;;;;;0.00;0.00;;;;;9.76;100.00;99587.50;5038921;28;45585;-78
2023/12/31 06:37:18;;;;;;;;;0.00;0.00;;;;;9.28;100.00;99515.75;5038864;28;46345;-77
2023/12/31 06:39:43;;;;;;;;;0.00;0.00;;;;;10.03;100.00;99630.66;5026096;28;45420;-78
2023/12/31 06:42:09;;;;;;;;;0.00;0.00;;;;;10.12;100.00;99634.47;5027140;28;45338;-78
2023/12/31 06:44:34;;;;;;;;;0.00;0.00;;;;;10.15;100.00;99639.59;5020773;28;46305;-77
2023/12/31 06:47:00;;;;;;;;;0.00;0.00;;;;;10.04;100.00;99636.78;5047933;28;45330;-79
2023/12/31 06:49:34;;;;;;;;;0.00;0.00;;;;;10.16;100.00;99651.88;5038965;28;45456;-78
2023/12/31 06:52:00;;;;;;;;;0.00;0.00;;;;;9.96;100.00;99618.78;5043033;28;45356;-78
2023/12/31 06:54:26;;;;;;;;;0.00;0.00;;;;;10.06;100.00;99633.09;5019719;28;45564;-78
2023/12/31 06:56:55;;;;;;;;;3.00;0.00;;;;;10.01;100.00;99636.97;5037831;28;46354;-78
2023/12/31 06:59:20;;;;;;;;;0.00;0.00;;;;;9.34;100.00;99541.75;5038364;28;45468;-78
2023/12/31 07:01:51;;;;;;;;;0.00;0.00;;;;;9.88;100.00;99636.91;5038403;28;45279;-78
2023/12/31 07:04:16;;;;;;;;;0.00;0.00;;;;;9.36;100.00;99592.59;5020355;28;45595;-78
2023/12/31 07:06:42;;;;;;;;;1.00;0.00;;;;;9.53;100.00;99610.03;5039520;28;46343;-78
2023/12/31 07:09:10;;;;;;;;;0.33;0.00;;;;;9.32;100.00;99566.53;5041628;28;45304;-78
2023/12/31 07:11:35;;;;;;;;;1.00;0.00;;;;;10.09;100.00;99701.59;5042634;28;45275;-78
2023/12/31 07:14:01;;;;;;;;;1.00;0.00;;;;;10.07;100.00;99706.13;5037638;28;45492;-77
2023/12/31 07:16:26;;;;;;;;;1.00;0.00;;;;;9.88;100.00;99685.28;5036961;28;59558;-77
2023/12/31 07:18:51;;;;;;;;;0.67;0.00;;;;;9.84;100.00;99693.50;5037920;28;46401;-78
2023/12/31 07:21:22;;;;;;;;;2.00;0.00;;;;;10.02;100.00;99755.72;5038951;28;45739;-78
2023/12/31 07:23:47;;;;;;;;;2.00;0.00;;;;;9.99;100.00;99745.34;5038479;28;45501;-78
2023/12/31 07:26:22;;;;;;;;;0.00;0.00;;;;;9.94;100.00;99732.47;5038376;28;45394;-78
2023/12/31 07:28:54;;;;;;;;;0.00;0.00;;;;;9.89;100.00;99731.88;5033452;28;45272;-78
2023/12/31 07:31:20;;;;;;;;;0.00;0.00;;;;;9.80;100.00;99727.16;5020048;28;45501;-78
2023/12/31 07:33:46;;;;;;;;;3.00;0.00;;;;;9.85;100.00;99751.47;5019694;28;45540;-78
2023/12/31 07:36:12;;;;;;;;;0.00;0.00;;;;;9.76;100.00;99733.56;5036618;28;46906;-79
2023/12/31 07:38:37;;;;;;;;;0.00;0.00;;;;;9.71;100.00;99721.59;5037864;28;45305;-78
2023/12/31 07:41:03;;;;;;;;;0.00;0.00;;;;;9.77;100.00;99755.53;5044892;28;45371;-78
2023/12/31 07:43:30;;;;;;;;;1.00;0.00;;;;;9.79;100.00;99783.53;5019988;28;45327;-78
2023/12/31 07:45:55;;;;;;;;;0.00;0.00;;;;;9.75;100.00;99795.22;5037446;28;46430;-78
2023/12/31 07:48:20;;;;;;;;;0.00;0.00;;;;;9.70;100.00;99785.88;5037607;28;45239;-78
2023/12/31 07:50:51;;;;;;;;;0.00;0.00;;;;;9.62;100.00;99786.34;5046280;28;45242;-77
2023/12/31 07:53:19;;;;;;;;;1.33;0.00;;;;;9.65;100.00;99801.16;5038257;28;45345;-78
2023/12/31 07:55:47;;;;;;;;;1.00;0.00;;;;;9.16;100.00;99732.78;5019199;28;45560;-78
2023/12/31 07:58:13;;;;;;;;;0.00;0.00;;;;;9.63;100.00;99825.00;5019718;28;45425;-77
2023/12/31 08:00:38;;;;;;;;;0.00;0.00;;;;;9.66;100.00;99835.38;5020086;28;45376;-77
2023/12/31 08:03:04;;;;;;;;;0.00;0.00;;;;;9.51;100.00;99811.69;5037220;28;45481;-77
2023/12/31 08:05:32;;;;;;;;;0.00;0.00;;;;;9.50;100.00;99821.38;5038311;28;45725;-77
2023/12/31 08:07:57;;;;;;;;;0.00;0.00;;;;;9.63;100.00;99840.00;5049053;28;45309;-76
2023/12/31 08:10:23;;;;;;;;;0.67;0.00;;;;;9.56;100.00;99838.63;5041232;28;45299;-76
2023/12/31 08:12:48;;;;;;;;;1.00;0.00;;;;;9.46;100.00;99827.78;5041540;28;45298;-77
2023/12/31 08:15:14;;;;;;;;;0.00;0.00;;;;;9.60;100.00;99854.22;5041409;28;46517;-76
2023/12/31 08:17:41;;;;;;;;;0.00;0.00;;;;;9.27;100.00;99808.66;5040169;28;45614;-77
2023/12/31 08:20:07;;;;;;;;;1.00;0.00;;;;;9.62;100.00;99860.25;5041874;28;45441;-78
2023/12/31 08:22:32;;;;;;;;;1.00;0.00;;;;;9.56;100.00;99865.03;5022876;28;45394;-76
2023/12/31 08:24:57;;;;;;;;;1.33;0.00;;;;;9.47;100.00;99853.22;5041470;28;46304;-77
2023/12/31 08:27:22;;;;;;;;;1.33;0.00;;;;;9.61;100.00;99858.56;5041763;28;45425;-76
2023/12/31 08:29:48;;;;;;;;;1.00;0.00;;;;;9.75;100.00;99885.00;5023900;28;45390;-77
2023/12/31 08:32:18;;;;;;;;;1.00;0.00;;;;;9.28;100.00;99832.34;5021425;28;45729;-77
2023/12/31 08:34:45;;;;;;;;;0.33;0.00;;;;;9.26;100.00;99828.91;5040980;28;45382;-76
2023/12/31 08:37:10;;;;;;;;;2.00;1.00;;;;;9.29;100.00;99820.00;5040909;28;45300;-77
2023/12/31 08:39:40;;;;;;;;;2.33;0.00;;;;;9.30;100.00;99824.31;5040884;28;45194;-78
2023/12/31 08:42:06;;;;;;;;;2.00;1.00;;;;;9.61;100.00;99877.06;5019898;28;45510;-77
2023/12/31 08:44:32;;;;;;;;;0.00;0.00;;;;;9.77;100.00;99903.41;5045708;28;46582;-77
2023/12/31 08:47:00;;;;;;;;;2.00;0.00;;;;;9.35;98.46;99864.50;5012461;28;45624;-76
2023/12/31 08:49:27;;;;;;;;;2.67;0.00;;;;;9.03;100.00;99803.00;5044647;28;45488;-78
2023/12/31 08:51:54;;;;;;;;;0.00;0.00;;;;;9.68;100.00;99912.72;5033261;28;45701;-78
2023/12/31 08:54:20;;;;;;;;;2.00;1.00;;;;;9.35;99.68;99885.63;5022924;28;46628;-77
2023/12/31 08:56:45;;;;;;;;;1.33;0.00;;;;;9.66;99.04;99893.47;5040299;28;45353;-77
2023/12/31 08:59:14;;;;;;;;;0.00;0.00;;;;;9.61;100.00;99890.25;5025809;28;45378;-77
2023/12/31 09:01:39;;;;;;;;;0.00;0.00;;;;;9.53;100.00;99871.34;5056597;28;45476;-77
2023/12/31 09:04:06;;;;;;;;;0.00;0.00;;;;;9.57;100.00;99872.03;5043068;28;45325;-78
2023/12/31 09:06:32;;;;;;;;;1.33;1.00;;;;;10.04;99.92;99930.00;5022637;28;45452;-78
2023/12/31 09:08:57;;;;;;;;;2.00;0.00;;;;;9.68;97.97;99862.56;5040324;28;45423;-77
2023/12/31 09:11:23;;;;;;;;;0.00;0.00;;;;;10.00;99.79;99909.97;5039511;28;45522;-77
2023/12/31 09:13:54;;;;;;;;;1.67;0.00;;;;;9.91;98.14;99924.59;5026023;28;45783;-78
2023/12/31 09:16:25;;;;;;;;;2.00;0.67;;;;;9.75;96.13;99884.19;5026672;28;45385;-77
2023/12/31 09:18:50;;;;;;;;;2.00;0.00;;;;;10.34;98.56;99965.22;5047468;28;45479;-77
2023/12/31 09:21:19;;;;;;;;;1.00;1.00;;;;;10.31;97.57;99957.44;5044518;28;45432;-77
2023/12/31 09:23:44;;;;;;;;;1.67;0.00;;;;;10.47;95.38;99971.44;5049038;28;45289;-77
2023/12/31 09:26:10;;;;;;;;;1.00;1.00;;;;;10.43;95.59;99981.38;5046176;28;51604;-78
2023/12/31 09:28:36;;;;;;;;;2.00;0.00;;;;;10.36;95.49;99958.91;5052407;28;45317;-77
2023/12/31 09:31:04;;;;;;;;;5.67;1.00;;;;;10.42;93.31;99970.88;5036064;28;45351;-78
2023/12/31 09:33:29;;;;;;;;;2.00;1.00;;;;;10.49;95.18;99989.88;5040924;28;45423;-77
2023/12/31 09:35:55;;;;;;;;;1.00;1.00;;;;;10.30;94.50;99955.78;5022155;28;45389;-77
2023/12/31 09:38:20;;;;;;;;;0.33;0.00;;;;;9.96;93.18;99893.47;5040089;28;45538;-77
2023/12/31 09:40:46;;;;;;;;;1.00;0.00;;;;;10.35;93.87;99983.63;5038710;28;45374;-77
2023/12/31 09:43:19;;;;;;;;;0.67;0.67;;;;;10.36;93.85;99972.13;5039491;28;45364;-77
2023/12/31 09:45:48;;;;;;;;;1.33;1.00;;;;;10.36;91.06;99969.47;5039264;28;45349;-77
2023/12/31 09:48:15;;;;;;;;;4.00;1.00;;;;;10.36;92.52;99973.91;5039485;28;45448;-78
2023/12/31 09:50:41;;;;;;;;;1.67;1.00;;;;;10.43;91.23;99999.88;5039450;28;45569;-78
2023/12/31 09:53:07;;;;;;;;;3.67;0.33;;;;;10.38;93.08;100006.38;5022639;28;47453;-78
2023/12/31 09:55:40;;;;;;;;;2.67;1.00;;;;;10.02;92.18;99921.28;5021208;28;45321;-77
2023/12/31 09:58:06;;;;;;;;;2.00;0.00;;;;;10.55;92.55;100005.38;5021876;28;45317;-78
2023/12/31 10:00:35;;;;;;;;;2.33;1.00;;;;;10.01;92.02;99906.41;5018127;28;45467;-78
2023/12/31 10:03:08;;;;;;;;;13.67;11.00;;;;;10.18;92.46;99972.31;5041629;28;46280;-78
2023/12/31 10:05:38;;;;;;;;;39.67;34.00;;;;;10.09;92.61;99914.72;5039086;28;45842;-78
2023/12/31 10:08:05;;;;;;;;;6.33;2.00;;;;;10.23;90.84;99946.50;5019084;28;45386;-78
2023/12/31 10:10:34;;;;;;;;;2.33;0.67;;;;;10.21;90.81;99940.47;5014356;28;45644;-78
2023/12/31 10:13:00;;;;;;;;;4.00;2.00;;;;;10.39;93.48;99985.16;5039064;28;46099;-79
2023/12/31 10:15:25;;;;;;;;;1.67;1.00;;;;;10.26;91.39;99955.09;5038713;28;45321;-78
2023/12/31 10:17:51;;;;;;;;;4.00;1.00;;;;;10.51;91.00;99975.63;5040785;28;45793;-79
2023/12/31 10:20:19;;;;;;;;;1.00;1.00;;;;;10.48;92.53;99959.09;5045518;28;45658;-77
2023/12/31 10:22:45;;;;;;;;;2.33;1.33;;;;;10.89;91.74;100035.00;5037855;28;48100;-79
2023/12/31 10:25:18;;;;;;;;;1.33;1.00;;;;;10.67;91.88;99973.75;5037418;28;45995;-83
2023/12/31 10:27:47;;;;;;;;;3.00;0.67;;;;;11.04;91.56;100027.91;5039683;28;45503;-79
2023/12/31 10:30:13;;;;;;;;;1.67;1.00;;;;;10.95;91.07;100013.47;5039650;28;45234;-79
2023/12/31 10:32:38;;;;;;;;;1.67;1.67;;;;;11.03;91.69;100022.72;5039495;28;46559;-79
2023/12/31 10:35:05;;;;;;;;;2.67;1.00;;;;;11.07;90.69;99993.31;5038716;28;45308;-79
2023/12/31 10:37:30;;;;;;;;;4.00;1.00;;;;;11.02;87.53;99991.91;5037433;28;46484;-78
2023/12/31 10:39:56;;;;;;;;;1.00;1.00;;;;;11.20;91.09;99993.41;5033897;28;45543;-79
2023/12/31 10:42:22;;;;;;;;;1.33;1.00;;;;;10.98;90.37;99973.59;5039058;28;46030;-79
2023/12/31 10:44:53;;;;;;;;;4.00;1.33;;;;;11.19;88.90;99989.06;5033622;28;45499;-79
2023/12/31 10:47:22;;;;;;;;;4.00;1.00;;;;;11.08;88.90;99980.94;5020471;28;45468;-79
2023/12/31 10:49:49;;;;;;;;;4.00;2.33;;;;;11.23;89.15;99998.50;5022265;28;45504;-79
2023/12/31 10:52:16;;;;;;;;;7.33;1.00;;;;;11.31;90.41;99988.31;5020382;28;46697;-79
2023/12/31 10:54:51;;;;;;;;;3.00;2.00;;;;;11.16;89.40;99928.41;5038453;28;45678;-78
2023/12/31 10:57:19;;;;;;;;;3.00;1.33;;;;;11.46;89.24;99982.03;5021030;28;45542;-79
2023/12/31 10:59:47;;;;;;;;;4.00;2.33;;;;;11.50;87.19;99986.19;5020086;28;45449;-78
2023/12/31 11:02:18;;;;;;;;;3.00;1.00;;;;;11.25;85.37;99963.06;5038177;28;46326;-79
2023/12/31 11:04:47;;;;;;;;;2.00;0.00;;;;;11.52;85.92;99987.78;5039160;28;45397;-78
2023/12/31 11:07:17;;;;;;;;;1.67;1.67;;;;;11.50;86.67;99967.63;5035584;28;45289;-76
2023/12/31 11:09:46;;;;;;;;;4.00;2.00;;;;;11.46;84.79;99977.56;5039058;28;45377;-78
2023/12/31 11:12:12;;;;;;;;;5.33;2.67;;;;;11.42;84.05;99948.72;5020046;28;45609;-76
2023/12/31 11:14:42;;;;;;;;;1.00;1.00;;;;;11.36;83.95;99938.53;5038139;28;45427;-76
2023/12/31 11:17:25;;;;;;;;;3.00;1.00;;;;;11.34;83.35;99953.69;5038959;28;45507;-76
2023/12/31 11:20:27;;;;;;;;;3.33;2.00;;;;;11.62;81.26;99988.03;5037865;28;45362;-77
2023/12/31 11:23:46;;;;;;;;;4.67;2.67;;;;;11.20;82.14;99916.66;5005661;28;45757;-78
2023/12/31 11:26:12;;;;;;;;;2.00;1.00;;;;;11.49;79.78;99944.75;5006029;28;45461;-77
2023/12/31 11:28:47;;;;;;;;;3.33;1.67;;;;;11.59;79.72;99977.63;5038662;28;45956;-77
2023/12/31 11:31:13;;;;;;;;;2.33;2.33;;;;;11.69;79.89;99984.03;5039223;28;45321;-77
2023/12/31 11:33:39;;;;;;;;;4.00;1.00;;;;;11.75;78.88;99961.63;5039671;28;45388;-77